createdAt,value
2018-08-04T00:04:54.778Z,9.66
2018-08-04T00:10:49.772Z,10.2
2018-08-04T00:16:44.804Z,9.83
2018-08-04T00:22:39.813Z,9.97
2018-08-04T00:28:34.816Z,9.53
2018-08-04T00:34:29.795Z,9.82
2018-08-04T00:40:24.834Z,10.69
2018-08-04T00:46:19.819Z,9.4
2018-08-04T00:52:14.827Z,10.21
2018-08-04T00:58:09.858Z,9.34
2018-08-04T01:04:04.884Z,10.61
2018-08-04T01:09:59.832Z,10.24
2018-08-04T01:15:54.832Z,10.24
2018-08-04T01:21:49.848Z,10
2018-08-04T01:27:44.857Z,9.19
2018-08-04T01:33:39.851Z,9.25
2018-08-04T01:39:34.855Z,9.75
2018-08-04T01:45:29.867Z,8.83
2018-08-04T01:51:24.877Z,9.43
2018-08-04T01:57:19.863Z,8.99
2018-08-04T02:03:14.894Z,9.4
2018-08-04T02:09:09.961Z,10.07
2018-08-04T02:15:04.861Z,10.42
2018-08-04T02:20:59.896Z,9.99
2018-08-04T02:26:54.880Z,10.56
2018-08-04T02:32:49.923Z,10.5
2018-08-04T02:38:44.967Z,9.76
2018-08-04T02:44:39.920Z,9.36
2018-08-04T02:50:34.920Z,8.84
2018-08-04T02:56:29.911Z,8.38
2018-08-04T03:02:24.911Z,8.9
2018-08-04T03:08:19.929Z,8.51
2018-08-04T03:14:14.914Z,7.72
2018-08-04T03:20:09.942Z,7.36
2018-08-04T03:26:04.928Z,8.73
2018-08-04T03:31:59.936Z,9.21
2018-08-04T03:37:54.981Z,9.65
2018-08-04T03:43:49.967Z,9.36
2018-08-04T03:49:44.943Z,9.76
2018-08-04T03:55:39.945Z,9.48
2018-08-04T04:01:34.941Z,8.88
2018-08-04T04:07:29.999Z,8.2
2018-08-04T04:13:24.983Z,8.16
2018-08-04T04:19:19.974Z,8.58
2018-08-04T04:25:15.005Z,8.98
2018-08-04T04:31:10.000Z,8.08
2018-08-04T04:37:04.997Z,8.62
2018-08-04T04:43:00.007Z,8.77
2018-08-04T04:48:54.991Z,9.69
2018-08-04T04:54:50.027Z,10.29
2018-08-04T05:00:45.019Z,8.65
2018-08-04T05:06:40.012Z,9.6
2018-08-04T05:12:35.003Z,9.67
2018-08-04T05:18:30.080Z,9.12
2018-08-04T05:24:25.044Z,9.4
2018-08-04T05:30:20.034Z,9.07
2018-08-04T05:36:15.045Z,9.96
2018-08-04T05:42:10.053Z,8.7
2018-08-04T05:48:05.065Z,8.36
2018-08-04T05:54:00.029Z,7.93
2018-08-04T05:59:55.045Z,8.11
2018-08-04T06:05:50.052Z,9.01
2018-08-04T06:11:45.051Z,8.62
2018-08-04T06:17:40.060Z,9.04
2018-08-04T06:23:35.085Z,8.22
2018-08-04T06:29:30.084Z,7.99
2018-08-04T06:35:25.145Z,8.6
2018-08-04T06:41:20.063Z,8.69
2018-08-04T06:47:15.085Z,7.62
2018-08-04T06:53:10.084Z,7.79
2018-08-04T06:59:05.105Z,7.96
2018-08-04T07:05:00.170Z,7.97
2018-08-04T07:10:55.085Z,8.11
2018-08-04T07:16:50.118Z,8.65
2018-08-04T07:22:45.164Z,7.45
2018-08-04T07:28:40.223Z,7.89
2018-08-04T07:34:35.119Z,7.57
2018-08-04T07:40:30.153Z,7.12
2018-08-04T07:46:25.137Z,7.96
2018-08-04T07:52:20.131Z,7.39
2018-08-04T07:58:15.130Z,7.43
2018-08-04T08:04:10.142Z,7.58
2018-08-04T08:10:05.148Z,6.83
2018-08-04T08:16:00.249Z,6.51
2018-08-04T08:21:55.160Z,6.48
2018-08-04T08:27:50.223Z,6.42
2018-08-04T08:33:45.171Z,6.01
2018-08-04T08:39:40.199Z,5.88
2018-08-04T08:45:35.189Z,6.22
2018-08-04T08:51:30.183Z,6.27
2018-08-04T08:57:25.194Z,6.69
2018-08-04T09:03:20.178Z,6.33
2018-08-04T09:09:15.495Z,5.65
2018-08-04T09:15:10.235Z,6.67
2018-08-04T09:21:05.217Z,5.81
2018-08-04T09:27:00.198Z,6.03
2018-08-04T09:32:55.232Z,6.37
2018-08-04T09:38:50.268Z,5.93
2018-08-04T09:44:45.225Z,6.2
2018-08-04T09:50:40.241Z,6.06
2018-08-04T09:56:35.265Z,6.38
2018-08-04T10:02:30.286Z,5.74
2018-08-04T10:08:25.263Z,6.3
2018-08-04T10:14:20.275Z,6.43
2018-08-04T10:20:15.327Z,6.04
2018-08-04T10:26:10.374Z,6.18
2018-08-04T10:32:05.377Z,6.17
2018-08-04T10:38:00.294Z,5.54
2018-08-04T10:43:55.288Z,5.47
2018-08-04T10:49:50.283Z,5.53
2018-08-04T10:55:45.301Z,5.81
2018-08-04T11:01:40.315Z,5.82
2018-08-04T11:07:35.289Z,5.23
2018-08-04T11:13:30.327Z,5.24
2018-08-04T11:19:25.294Z,5.29
2018-08-04T11:25:20.337Z,5.68
2018-08-04T11:31:15.305Z,5.16
2018-08-04T11:37:10.314Z,4.97
2018-08-04T11:43:05.320Z,4.72
2018-08-04T11:49:00.323Z,5.32
2018-08-04T11:54:55.320Z,5.51
2018-08-04T12:00:50.380Z,6.05
2018-08-04T12:06:45.319Z,6.05
2018-08-04T12:12:40.335Z,5.66
2018-08-04T12:18:35.368Z,6.23
2018-08-04T12:24:30.368Z,6.19
2018-08-04T12:30:25.364Z,6.3
2018-08-04T12:36:20.360Z,5.77
2018-08-04T12:42:15.397Z,6.25
2018-08-04T12:48:10.354Z,6.82
2018-08-04T12:54:05.365Z,6.24
2018-08-04T13:00:00.438Z,6.44
2018-08-04T13:05:55.361Z,6.35
2018-08-04T13:11:50.409Z,6.6
2018-08-04T13:17:45.373Z,5.8
2018-08-04T13:23:40.404Z,6.15
2018-08-04T13:29:35.495Z,5.28
2018-08-04T13:35:30.435Z,5.32
2018-08-04T13:41:25.415Z,6.73
2018-08-04T13:47:20.398Z,6.11
2018-08-04T13:53:15.427Z,6.69
2018-08-04T13:59:10.478Z,6.91
2018-08-04T14:05:05.435Z,6.52
2018-08-04T14:11:00.451Z,6.3
2018-08-04T14:16:55.437Z,6.63
2018-08-04T14:22:50.470Z,6.37
2018-08-04T14:28:45.504Z,6.7
2018-08-04T14:34:40.462Z,6.18
2018-08-04T14:40:35.457Z,6.79
2018-08-04T14:46:30.484Z,5.83
2018-08-04T14:52:25.459Z,5.9
2018-08-04T14:58:20.452Z,6.07
2018-08-04T15:04:15.541Z,6.61
2018-08-04T15:10:10.566Z,7.12
2018-08-04T15:16:05.499Z,6.48
2018-08-04T15:22:00.481Z,6.08
2018-08-04T15:27:55.546Z,5.64
2018-08-04T15:33:50.515Z,6.7
2018-08-04T15:39:45.506Z,5.81
2018-08-04T15:45:40.559Z,5.84
2018-08-04T15:51:35.509Z,5.59
2018-08-04T15:57:30.524Z,5.74
2018-08-04T16:03:25.552Z,5.7
2018-08-04T16:09:20.541Z,5.92
2018-08-04T16:15:15.542Z,5.76
2018-08-04T16:21:10.597Z,5.85
2018-08-04T16:27:05.549Z,6.39
2018-08-04T16:33:00.586Z,6.39
2018-08-04T16:38:55.585Z,6.02
2018-08-04T16:44:50.552Z,6.54
2018-08-04T16:50:45.565Z,6.43
2018-08-04T16:56:40.582Z,6.51
2018-08-04T17:02:35.578Z,6.43
2018-08-04T17:08:30.589Z,6.07
2018-08-04T17:14:25.566Z,7.1
2018-08-04T17:20:20.592Z,6.56
2018-08-04T17:26:15.616Z,6.09
2018-08-04T17:32:10.599Z,6.54
2018-08-04T17:38:05.589Z,5.9
2018-08-04T17:44:00.603Z,6.75
2018-08-04T17:49:55.622Z,6.58
2018-08-04T17:55:50.614Z,6.54
2018-08-04T18:01:45.658Z,6.66
2018-08-04T18:07:40.631Z,7.15
2018-08-04T18:13:35.625Z,7.21
2018-08-04T18:19:30.621Z,7.09
2018-08-04T18:25:25.641Z,7.37
2018-08-04T18:31:20.641Z,7.97
2018-08-04T18:37:15.688Z,7.72
2018-08-04T18:43:10.645Z,7.73
2018-08-04T18:49:05.677Z,7.72
2018-08-04T18:55:00.666Z,8.42
2018-08-04T19:00:55.692Z,7.85
2018-08-04T19:06:50.705Z,7.86
2018-08-04T19:12:45.693Z,8.25
2018-08-04T19:18:40.677Z,7.94
2018-08-04T19:24:35.674Z,7.95
2018-08-04T19:30:30.700Z,7.88
2018-08-04T19:36:25.773Z,8.13
2018-08-04T19:42:20.689Z,7.7
2018-08-04T19:48:15.761Z,8.49
2018-08-04T19:54:10.711Z,7.85
2018-08-04T20:00:05.729Z,8.01
2018-08-04T20:06:00.775Z,8
2018-08-04T20:11:55.711Z,8.08
2018-08-04T20:17:50.801Z,7.43
2018-08-04T20:23:45.768Z,8.1
2018-08-04T20:29:40.814Z,8.38
2018-08-04T20:35:35.766Z,8.26
2018-08-04T20:41:30.735Z,7.9
2018-08-04T20:47:25.782Z,7.9
2018-08-04T20:53:20.744Z,7.18
2018-08-04T20:59:15.787Z,7.8
2018-08-04T21:05:10.748Z,7.65
2018-08-04T21:11:05.767Z,7.4
2018-08-04T21:17:00.777Z,7.89
2018-08-04T21:22:55.759Z,7.98
2018-08-04T21:28:50.761Z,7.7
2018-08-04T21:34:45.820Z,7.38
2018-08-04T21:40:40.789Z,7.75
2018-08-04T21:46:35.788Z,7.24
2018-08-04T21:52:30.849Z,7.32
2018-08-04T21:58:25.854Z,7.18
2018-08-04T22:04:20.840Z,7.41
2018-08-04T22:10:15.782Z,8.34
2018-08-04T22:16:10.859Z,7.51
2018-08-04T22:22:05.798Z,7.2
2018-08-04T22:28:00.817Z,8.3
2018-08-04T22:33:55.806Z,8.03
2018-08-04T22:39:50.824Z,7.94
2018-08-04T22:45:45.942Z,7.77
2018-08-04T22:51:40.828Z,7.92
2018-08-04T22:57:35.823Z,7.68
2018-08-04T23:03:30.853Z,7.72
2018-08-04T23:09:25.845Z,7.71
2018-08-04T23:15:20.843Z,7
2018-08-04T23:21:15.852Z,7.62
2018-08-04T23:27:10.865Z,7.18
2018-08-04T23:33:05.861Z,6.9
2018-08-04T23:39:00.872Z,7.84
2018-08-04T23:44:55.902Z,7.47
2018-08-04T23:50:50.878Z,8.01
2018-08-04T23:56:45.860Z,7.33
